createdAt,value
2023-04-09T00:00:31.693Z,98947.46
2023-04-09T00:03:07.429Z,98946.94
2023-04-09T00:05:38.321Z,98950.63
2023-04-09T00:08:06.144Z,98952.23
2023-04-09T00:10:38.412Z,98949.96
2023-04-09T00:13:07.821Z,98948.99
2023-04-09T00:15:35.827Z,98954.09
2023-04-09T00:18:03.777Z,98951.58
2023-04-09T00:20:31.424Z,98952.38
2023-04-09T00:22:58.703Z,98954.67
2023-04-09T00:25:26.226Z,98956.40
2023-04-09T00:27:54.293Z,98955.14
2023-04-09T00:30:21.563Z,98958.75
2023-04-09T00:32:50.410Z,98957.63
2023-04-09T00:35:17.788Z,98954.99
2023-04-09T00:37:45.465Z,98958.00
2023-04-09T00:40:12.747Z,98958.48
2023-04-09T00:42:41.390Z,98958.14
2023-04-09T00:45:09.398Z,98956.94
2023-04-09T00:47:37.649Z,98959.40
2023-04-09T00:50:05.294Z,98960.36
2023-04-09T00:52:33.781Z,98960.61
2023-04-09T00:55:01.281Z,98959.20
2023-04-09T00:57:28.913Z,98957.64
2023-04-09T00:59:56.562Z,98954.15
2023-04-09T01:02:24.141Z,98958.80
2023-04-09T01:04:52.388Z,98959.15
2023-04-09T01:07:20.385Z,98956.59
2023-04-09T01:09:51.808Z,98957.52
2023-04-09T01:12:38.205Z,98959.05
2023-04-09T01:15:07.104Z,98959.40
2023-04-09T01:17:46.037Z,98956.55
2023-04-09T01:20:14.262Z,98953.02
2023-04-09T01:23:00.523Z,98957.45
2023-04-09T01:25:44.026Z,98964.35
2023-04-09T01:28:16.015Z,98966.92
2023-04-09T01:30:46.999Z,98966.80
2023-04-09T01:33:14.997Z,98965.36
2023-04-09T01:35:42.974Z,98966.59
2023-04-09T01:38:10.932Z,98974.05
2023-04-09T01:40:40.164Z,98977.79
2023-04-09T01:43:07.691Z,98985.94
2023-04-09T01:45:37.105Z,98985.32
2023-04-09T01:48:04.761Z,98983.30
2023-04-09T01:50:33.850Z,98988.98
2023-04-09T01:53:01.307Z,98984.61
2023-04-09T01:55:28.513Z,98984.98
2023-04-09T01:57:55.847Z,98982.07
2023-04-09T02:00:23.505Z,98977.41
2023-04-09T02:03:01.934Z,98976.38
2023-04-09T02:05:30.480Z,98978.16
2023-04-09T02:08:00.483Z,98979.55
2023-04-09T02:10:27.946Z,98979.95
2023-04-09T02:12:55.602Z,98978.57
2023-04-09T02:15:26.228Z,98975.63
2023-04-09T02:17:55.374Z,98976.84
2023-04-09T02:20:22.947Z,98975.40
2023-04-09T02:22:50.485Z,98972.77
2023-04-09T02:25:18.045Z,98978.14
2023-04-09T02:27:45.497Z,98975.71
2023-04-09T02:30:14.455Z,98973.00
2023-04-09T02:32:41.936Z,98974.07
2023-04-09T02:35:09.782Z,98972.63
2023-04-09T02:37:37.335Z,98970.68
2023-04-09T02:40:05.039Z,98972.17
2023-04-09T02:42:33.270Z,98972.36
2023-04-09T02:45:00.935Z,98968.97
2023-04-09T02:47:30.412Z,98968.67
2023-04-09T02:49:58.614Z,98972.84
2023-04-09T02:52:26.585Z,98967.55
2023-04-09T02:54:55.471Z,98968.93
2023-04-09T02:57:22.759Z,98970.16
2023-04-09T02:59:53.766Z,98972.57
2023-04-09T03:02:22.709Z,98966.44
2023-04-09T03:04:50.623Z,98971.20
2023-04-09T03:07:17.875Z,98975.36
2023-04-09T03:09:45.545Z,98975.11
2023-04-09T03:12:12.898Z,98974.79
2023-04-09T03:14:40.338Z,98975.52
2023-04-09T03:17:08.835Z,98975.55
2023-04-09T03:19:38.043Z,98974.19
2023-04-09T03:22:06.023Z,98971.63
2023-04-09T03:24:33.973Z,98976.16
2023-04-09T03:27:03.166Z,98974.25
2023-04-09T03:29:32.776Z,98976.11
2023-04-09T03:32:00.634Z,98981.70
2023-04-09T03:34:28.297Z,98984.48
2023-04-09T03:36:56.880Z,98981.58
2023-04-09T03:39:30.582Z,98980.52
2023-04-09T03:41:58.556Z,98982.34
2023-04-09T03:44:27.277Z,98979.31
2023-04-09T03:47:06.059Z,98984.88
2023-04-09T03:49:34.854Z,98983.09
2023-04-09T03:52:08.242Z,98981.42
2023-04-09T03:54:38.881Z,98984.19
2023-04-09T03:57:11.859Z,98986.63
2023-04-09T03:59:46.218Z,98989.77
2023-04-09T04:02:14.565Z,98994.48
2023-04-09T04:04:46.092Z,98999.20
2023-04-09T04:07:15.507Z,99000.12
2023-04-09T04:09:55.563Z,99003.95
2023-04-09T04:12:25.778Z,99006.61
2023-04-09T04:15:04.911Z,99005.70
2023-04-09T04:17:58.919Z,99006.36
2023-04-09T04:20:38.120Z,99006.50
2023-04-09T04:23:23.738Z,99012.62
2023-04-09T04:26:06.291Z,99011.67
2023-04-09T04:28:36.604Z,99013.17
2023-04-09T04:31:08.803Z,99018.27
2023-04-09T04:33:38.410Z,99023.72
2023-04-09T04:36:09.972Z,99024.38
2023-04-09T04:38:41.250Z,99025.23
2023-04-09T04:41:12.834Z,99027.53
2023-04-09T04:43:46.364Z,99028.42
2023-04-09T04:46:27.336Z,99032.25
2023-04-09T04:48:55.231Z,99032.92
2023-04-09T04:51:23.068Z,99035.57
2023-04-09T04:54:01.690Z,99035.46
2023-04-09T04:56:30.066Z,99038.98
2023-04-09T04:59:07.367Z,99041.17
2023-04-09T05:01:45.702Z,99045.15
2023-04-09T05:04:13.630Z,99045.40
2023-04-09T05:06:41.531Z,99046.13
2023-04-09T05:09:11.694Z,99046.92
2023-04-09T05:11:50.788Z,99051.63
2023-04-09T05:14:24.160Z,99055.85
2023-04-09T05:16:52.013Z,99056.19
2023-04-09T05:19:21.847Z,99059.40
2023-04-09T05:21:50.381Z,99066.81
2023-04-09T05:24:21.959Z,99071.20
2023-04-09T05:26:50.751Z,99072.19
2023-04-09T05:29:19.123Z,99081.30
2023-04-09T05:31:49.855Z,99087.41
2023-04-09T05:34:43.260Z,99092.41
2023-04-09T05:41:07.969Z,99097.30
2023-04-09T05:43:38.005Z,99105.17
2023-04-09T05:46:10.509Z,99115.35
2023-04-09T05:48:39.735Z,99116.67
2023-04-09T05:51:06.945Z,99120.67
2023-04-09T05:53:34.647Z,99119.83
2023-04-09T05:56:02.141Z,99127.33
2023-04-09T05:58:40.513Z,99130.70
2023-04-09T06:01:09.712Z,99133.54
2023-04-09T06:03:37.122Z,99134.04
2023-04-09T06:06:05.463Z,99136.28
2023-04-09T06:08:35.174Z,99137.77
2023-04-09T06:11:03.427Z,99140.95
2023-04-09T06:13:31.115Z,99142.50
2023-04-09T06:16:00.219Z,99151.41
2023-04-09T06:18:29.075Z,99157.79
2023-04-09T06:21:02.462Z,99159.55
2023-04-09T06:23:32.602Z,99168.95
2023-04-09T06:26:00.979Z,99171.67
2023-04-09T06:28:28.566Z,99175.36
2023-04-09T06:30:55.840Z,99175.33
2023-04-09T06:33:23.787Z,99178.79
2023-04-09T06:35:51.315Z,99180.26
2023-04-09T06:38:19.861Z,99177.19
2023-04-09T06:40:47.347Z,99179.19
2023-04-09T06:43:18.192Z,99177.44
2023-04-09T06:45:50.656Z,99175.27
2023-04-09T06:48:17.933Z,99172.20
2023-04-09T06:50:45.108Z,99171.71
2023-04-09T06:53:14.102Z,99171.32
2023-04-09T06:55:41.713Z,99175.86
2023-04-09T06:58:10.814Z,99178.23
2023-04-09T07:00:38.741Z,99180.42
2023-04-09T07:03:15.215Z,99177.81
2023-04-09T07:05:43.217Z,99180.19
2023-04-09T07:08:11.301Z,99178.09
2023-04-09T07:10:40.544Z,99177.94
2023-04-09T07:13:12.646Z,99179.02
2023-04-09T07:15:41.705Z,99180.16
2023-04-09T07:18:11.548Z,99186.92
2023-04-09T07:20:39.837Z,99185.86
2023-04-09T07:23:07.694Z,99191.11
2023-04-09T07:25:35.157Z,99187.02
2023-04-09T07:28:02.861Z,99182.81
2023-04-09T07:30:31.281Z,99185.17
2023-04-09T07:32:59.671Z,99184.10
2023-04-09T07:35:27.746Z,99180.48
2023-04-09T07:37:55.726Z,99183.42
2023-04-09T07:40:25.390Z,99183.67
2023-04-09T07:42:53.496Z,99186.55
2023-04-09T07:45:21.164Z,99184.95
2023-04-09T07:47:50.474Z,99186.22
2023-04-09T07:50:18.523Z,99188.08
2023-04-09T07:52:47.153Z,99190.16
2023-04-09T07:55:16.826Z,99191.65
2023-04-09T07:57:46.135Z,99197.39
2023-04-09T08:00:23.736Z,99201.09
2023-04-09T08:02:57.349Z,99200.50
2023-04-09T08:05:25.587Z,99197.77
2023-04-09T08:07:57.347Z,99199.31
2023-04-09T08:10:24.699Z,99201.58
2023-04-09T08:12:51.954Z,99201.73
2023-04-09T08:15:19.784Z,99199.44
2023-04-09T08:17:48.720Z,99198.65
2023-04-09T08:20:16.781Z,99196.29
2023-04-09T08:22:46.271Z,99189.54
2023-04-09T08:25:13.845Z,99195.31
2023-04-09T08:27:41.442Z,99200.68
2023-04-09T08:30:10.702Z,99196.26
2023-04-09T08:32:39.564Z,99199.59
2023-04-09T08:35:07.763Z,99194.47
2023-04-09T08:37:35.129Z,99193.20
2023-04-09T08:40:02.993Z,99194.63
2023-04-09T08:42:31.053Z,99194.69
2023-04-09T08:45:00.571Z,99195.33
2023-04-09T08:47:27.913Z,99196.04
2023-04-09T08:49:55.848Z,99194.55
2023-04-09T08:52:34.191Z,99191.52
2023-04-09T08:55:01.927Z,99190.84
2023-04-09T08:57:29.515Z,99192.17
2023-04-09T08:59:58.329Z,99194.85
2023-04-09T09:02:26.645Z,99193.98
2023-04-09T09:05:00.202Z,99196.60
2023-04-09T09:07:28.037Z,99197.09
2023-04-09T09:09:58.998Z,99192.09
2023-04-09T09:12:33.506Z,99194.75
2023-04-09T09:15:01.276Z,99193.46
2023-04-09T09:17:29.913Z,99191.79
2023-04-09T09:19:58.020Z,99190.60
2023-04-09T09:22:30.801Z,99189.02
2023-04-09T09:24:58.607Z,99182.92
2023-04-09T09:27:36.783Z,99180.61
2023-04-09T09:30:05.537Z,99179.67
2023-04-09T09:32:32.901Z,99178.80
2023-04-09T09:35:03.773Z,99179.90
2023-04-09T09:37:31.565Z,99180.32
2023-04-09T09:39:59.181Z,99180.67
2023-04-09T09:42:27.569Z,99180.60
2023-04-09T09:44:56.249Z,99179.80
2023-04-09T09:47:24.963Z,99180.84
2023-04-09T09:49:52.333Z,99176.40
2023-04-09T09:52:26.625Z,99171.73
2023-04-09T09:54:55.437Z,99171.98
2023-04-09T09:57:24.625Z,99171.61
2023-04-09T09:59:54.622Z,99164.31
2023-04-09T10:02:23.255Z,99162.98
2023-04-09T10:04:52.370Z,99167.14
2023-04-09T10:07:21.392Z,99170.37
2023-04-09T10:09:50.370Z,99169.64
2023-04-09T10:12:18.956Z,99172.51
2023-04-09T10:14:51.536Z,99175.48
2023-04-09T10:17:19.178Z,99173.77
2023-04-09T10:19:55.390Z,99172.29
2023-04-09T10:22:23.231Z,99174.17
2023-04-09T10:24:52.416Z,99169.66
2023-04-09T10:27:20.099Z,99169.08
2023-04-09T10:29:48.357Z,99172.80
2023-04-09T10:32:22.845Z,99174.61
2023-04-09T10:35:10.103Z,99182.58
2023-04-09T10:37:37.352Z,99190.02
2023-04-09T10:40:05.734Z,99192.38
2023-04-09T10:42:38.509Z,99193.91
2023-04-09T10:45:13.753Z,99197.16
2023-04-09T10:47:48.211Z,99203.20
2023-04-09T10:50:18.956Z,99206.33
2023-04-09T10:52:47.508Z,99211.88
2023-04-09T10:55:38.605Z,99214.30
2023-04-09T10:58:09.745Z,99216.86
2023-04-09T11:00:44.688Z,99218.77
2023-04-09T11:03:23.842Z,99225.20
2023-04-09T11:06:06.845Z,99229.61
2023-04-09T11:08:39.055Z,99230.69
2023-04-09T11:11:07.470Z,99231.45
2023-04-09T11:13:41.242Z,99229.65
2023-04-09T11:16:12.263Z,99227.30
2023-04-09T11:18:55.800Z,99227.18
2023-04-09T11:21:27.339Z,99226.55
2023-04-09T11:24:01.303Z,99226.95
2023-04-09T11:26:35.588Z,99227.67
2023-04-09T11:29:09.543Z,99228.92
2023-04-09T11:31:39.076Z,99228.02
2023-04-09T11:34:27.714Z,99231.79
2023-04-09T11:36:58.559Z,99235.81
2023-04-09T11:39:29.637Z,99234.89
2023-04-09T11:41:57.964Z,99233.50
2023-04-09T11:44:35.301Z,99233.38
2023-04-09T11:47:12.501Z,99232.70
2023-04-09T11:49:42.359Z,99228.74
2023-04-09T11:52:17.744Z,99218.61
2023-04-09T11:54:53.734Z,99214.09
2023-04-09T11:57:44.580Z,99207.27
2023-04-09T12:00:13.759Z,99204.92
2023-04-09T12:03:02.836Z,99202.80
2023-04-09T12:05:49.277Z,99199.95
2023-04-09T12:08:22.297Z,99206.98
2023-04-09T12:11:03.847Z,99209.69
2023-04-09T12:13:31.939Z,99211.41
2023-04-09T12:16:00.525Z,99212.63
2023-04-09T12:18:30.460Z,99208.66
2023-04-09T12:21:02.157Z,99210.31
2023-04-09T12:23:38.578Z,99213.10
2023-04-09T12:26:11.246Z,99215.85
2023-04-09T12:28:38.907Z,99223.02
2023-04-09T12:31:10.552Z,99225.13
2023-04-09T12:33:50.074Z,99233.84
2023-04-09T12:36:17.244Z,99239.43
2023-04-09T12:38:45.006Z,99247.41
2023-04-09T12:41:12.974Z,99244.19
2023-04-09T12:43:44.216Z,99248.10
2023-04-09T12:46:13.512Z,99248.58
2023-04-09T12:48:42.627Z,99252.23
2023-04-09T12:51:11.922Z,99254.75
2023-04-09T12:53:41.728Z,99252.50
2023-04-09T12:56:10.002Z,99251.44
2023-04-09T12:58:38.865Z,99249.59
2023-04-09T13:01:07.312Z,99248.66
2023-04-09T13:03:35.934Z,99249.55
2023-04-09T13:06:07.857Z,99251.12
2023-04-09T13:08:35.585Z,99252.89
2023-04-09T13:11:04.065Z,99250.87
2023-04-09T13:13:34.386Z,99243.34
2023-04-09T13:16:03.763Z,99242.23
2023-04-09T13:18:32.446Z,99241.63
2023-04-09T13:20:59.823Z,99236.78
2023-04-09T13:23:27.490Z,99242.05
2023-04-09T13:25:55.000Z,99236.61
2023-04-09T13:28:22.511Z,99236.30
2023-04-09T13:30:51.256Z,99232.00
2023-04-09T13:33:38.922Z,99232.20
2023-04-09T13:36:08.042Z,99229.69
2023-04-09T13:38:35.807Z,99231.79
2023-04-09T13:41:05.630Z,99234.90
2023-04-09T13:43:34.992Z,99234.00
2023-04-09T13:46:05.462Z,99230.11
2023-04-09T13:48:35.848Z,99227.83
2023-04-09T13:51:05.553Z,99222.55
2023-04-09T13:53:33.125Z,99223.85
2023-04-09T13:56:01.286Z,99221.48
2023-04-09T13:58:31.913Z,99222.48
2023-04-09T14:01:03.006Z,99225.38
2023-04-09T14:03:31.550Z,99225.39
2023-04-09T14:05:59.119Z,99226.77
2023-04-09T14:08:27.171Z,99226.63
2023-04-09T14:10:56.471Z,99223.66
2023-04-09T14:13:25.453Z,99219.94
2023-04-09T14:15:53.102Z,99220.78
2023-04-09T14:18:20.488Z,99218.73
2023-04-09T14:20:50.021Z,99221.17
2023-04-09T14:23:17.450Z,99225.73
2023-04-09T14:25:46.059Z,99227.29
2023-04-09T14:28:13.933Z,99232.41
2023-04-09T14:30:41.256Z,99233.80
2023-04-09T14:33:28.461Z,99227.51
2023-04-09T14:35:58.184Z,99233.92
2023-04-09T14:38:26.140Z,99236.42
2023-04-09T14:40:53.901Z,99240.64
2023-04-09T14:43:21.504Z,99246.45
2023-04-09T14:45:49.228Z,99250.81
2023-04-09T14:48:18.940Z,99257.45
2023-04-09T14:50:50.797Z,99260.53
2023-04-09T14:53:18.868Z,99264.23
2023-04-09T14:56:06.639Z,99262.58
2023-04-09T14:58:37.755Z,99263.23
2023-04-09T15:01:14.316Z,99265.44
2023-04-09T15:04:01.761Z,99270.52
2023-04-09T15:06:32.680Z,99271.67
2023-04-09T15:09:06.280Z,99277.24
2023-04-09T15:11:34.247Z,99277.73
2023-04-09T15:14:06.211Z,99274.42
2023-04-09T15:16:37.236Z,99271.15
2023-04-09T15:19:06.053Z,99273.34
2023-04-09T15:21:34.020Z,99267.21
2023-04-09T15:24:01.970Z,99267.16
2023-04-09T15:26:30.860Z,99263.02
2023-04-09T15:29:06.326Z,99266.49
2023-04-09T15:31:41.702Z,99270.48
2023-04-09T15:34:14.437Z,99271.61
2023-04-09T15:36:42.938Z,99273.19
2023-04-09T15:39:11.094Z,99273.47
2023-04-09T15:41:39.288Z,99273.40
2023-04-09T15:44:12.358Z,99264.37
2023-04-09T15:46:56.534Z,99262.49
2023-04-09T15:49:27.226Z,99266.07
2023-04-09T15:51:59.429Z,99261.31
2023-04-09T15:54:27.359Z,99265.89
2023-04-09T15:57:04.672Z,99265.84
2023-04-09T15:59:33.465Z,99263.08
2023-04-09T16:02:02.745Z,99256.77
2023-04-09T16:04:32.400Z,99255.37
2023-04-09T16:07:04.787Z,99256.69
2023-04-09T16:09:52.368Z,99252.83
2023-04-09T16:12:25.844Z,99250.93
2023-04-09T16:15:01.958Z,99242.80
2023-04-09T16:17:40.527Z,99245.92
2023-04-09T16:20:10.344Z,99239.87
2023-04-09T16:22:44.958Z,99236.55
2023-04-09T16:25:14.052Z,99233.69
2023-04-09T16:27:41.527Z,99233.29
2023-04-09T16:30:09.373Z,99234.19
2023-04-09T16:32:46.538Z,99231.93
2023-04-09T16:35:15.247Z,99233.21
2023-04-09T16:37:42.593Z,99233.19
2023-04-09T16:40:10.161Z,99236.25
2023-04-09T16:42:42.423Z,99239.54
2023-04-09T16:45:10.724Z,99243.73
2023-04-09T16:47:57.907Z,99246.63
2023-04-09T16:50:29.202Z,99245.40
2023-04-09T16:52:56.791Z,99245.58
2023-04-09T16:55:25.101Z,99247.73
2023-04-09T16:57:56.065Z,99247.38
2023-04-09T17:00:27.088Z,99247.02
2023-04-09T17:02:57.591Z,99243.67
2023-04-09T17:05:25.627Z,99246.52
2023-04-09T17:07:55.088Z,99242.16
2023-04-09T17:10:22.618Z,99240.63
2023-04-09T17:12:50.864Z,99237.56
2023-04-09T17:15:22.204Z,99234.71
2023-04-09T17:17:52.762Z,99229.73
2023-04-09T17:20:22.272Z,99230.02
2023-04-09T17:23:01.119Z,99226.29
2023-04-09T17:25:29.936Z,99224.70
2023-04-09T17:28:01.463Z,99228.52
2023-04-09T17:30:30.991Z,99226.81
2023-04-09T17:33:20.974Z,99224.97
2023-04-09T17:36:02.022Z,99224.98
2023-04-09T17:38:35.152Z,99225.49
2023-04-09T17:41:02.575Z,99219.94
2023-04-09T17:43:30.332Z,99222.45
2023-04-09T17:46:03.096Z,99224.13
2023-04-09T17:48:32.160Z,99228.36
2023-04-09T17:51:00.086Z,99223.83
2023-04-09T17:53:27.542Z,99225.65
2023-04-09T17:55:54.991Z,99226.95
2023-04-09T17:58:26.646Z,99224.94
2023-04-09T18:00:55.338Z,99232.73
2023-04-09T18:03:23.107Z,99229.28
2023-04-09T18:05:52.899Z,99228.01
2023-04-09T18:08:20.365Z,99227.02
2023-04-09T18:11:12.192Z,99232.38
2023-04-09T18:13:46.443Z,99229.41
2023-04-09T18:16:21.305Z,99225.66
2023-04-09T18:18:50.572Z,99225.71
2023-04-09T18:21:18.812Z,99216.82
2023-04-09T18:23:47.392Z,99214.33
2023-04-09T18:26:18.027Z,99209.09
2023-04-09T18:28:46.493Z,99209.86
2023-04-09T18:31:29.087Z,99203.79
2023-04-09T18:33:56.676Z,99204.41
2023-04-09T18:36:24.889Z,99202.42
2023-04-09T18:38:53.640Z,99199.94
2023-04-09T18:41:26.095Z,99201.29
2023-04-09T18:43:59.508Z,99200.79
2023-04-09T18:46:32.578Z,99202.66
2023-04-09T18:49:03.639Z,99205.34
2023-04-09T18:51:31.653Z,99203.35
2023-04-09T18:54:00.125Z,99210.70
2023-04-09T18:56:28.770Z,99209.58
2023-04-09T18:58:56.538Z,99204.27
2023-04-09T19:01:23.865Z,99203.34
2023-04-09T19:03:51.375Z,99197.36
2023-04-09T19:06:19.215Z,99195.17
2023-04-09T19:08:46.686Z,99193.41
2023-04-09T19:11:14.452Z,99190.96
2023-04-09T19:13:41.794Z,99187.33
2023-04-09T19:16:09.688Z,99184.64
2023-04-09T19:18:38.343Z,99183.05
2023-04-09T19:21:06.424Z,99184.66
2023-04-09T19:23:34.199Z,99184.17
2023-04-09T19:26:05.118Z,99180.55
2023-04-09T19:28:32.376Z,99181.16
2023-04-09T19:31:02.049Z,99179.46
2023-04-09T19:33:31.711Z,99176.63
2023-04-09T19:36:00.623Z,99178.20
2023-04-09T19:38:30.437Z,99178.11
2023-04-09T19:41:00.304Z,99177.77
2023-04-09T19:43:27.765Z,99180.95
2023-04-09T19:45:56.580Z,99183.92
2023-04-09T19:48:24.410Z,99186.98
2023-04-09T19:50:56.267Z,99184.65
2023-04-09T19:53:23.722Z,99180.74
2023-04-09T19:55:51.078Z,99177.98
2023-04-09T19:58:20.305Z,99180.95
2023-04-09T20:00:47.844Z,99177.70
2023-04-09T20:03:15.807Z,99178.45
2023-04-09T20:05:45.508Z,99180.37
2023-04-09T20:08:15.777Z,99174.72
2023-04-09T20:10:47.062Z,99175.90
2023-04-09T20:13:16.639Z,99174.73
2023-04-09T20:15:47.122Z,99174.15
2023-04-09T20:18:20.367Z,99176.71
2023-04-09T20:20:51.447Z,99166.80
2023-04-09T20:23:19.417Z,99168.34
2023-04-09T20:25:53.734Z,99165.69
2023-04-09T20:28:21.449Z,99165.25
2023-04-09T20:30:48.854Z,99162.48
2023-04-09T20:33:20.172Z,99154.98
2023-04-09T20:35:58.577Z,99155.92
2023-04-09T20:38:26.362Z,99155.85
2023-04-09T20:40:54.362Z,99154.96
2023-04-09T20:43:25.125Z,99154.41
2023-04-09T20:46:02.101Z,99152.46
2023-04-09T20:48:31.066Z,99152.04
2023-04-09T20:50:58.300Z,99147.81
2023-04-09T20:53:25.590Z,99149.08
2023-04-09T20:55:54.339Z,99144.03
2023-04-09T20:58:22.246Z,99143.65
2023-04-09T21:00:49.721Z,99141.53
2023-04-09T21:03:18.536Z,99135.16
2023-04-09T21:05:47.588Z,99132.09
2023-04-09T21:08:15.716Z,99134.01
2023-04-09T21:10:43.080Z,99131.09
2023-04-09T21:13:17.633Z,99128.91
2023-04-09T21:15:48.632Z,99128.66
2023-04-09T21:18:16.405Z,99126.95
2023-04-09T21:20:51.161Z,99123.98
2023-04-09T21:23:19.305Z,99121.79
2023-04-09T21:25:46.488Z,99114.45
2023-04-09T21:28:21.815Z,99114.86
2023-04-09T21:30:51.441Z,99114.78
2023-04-09T21:33:19.149Z,99117.68
2023-04-09T21:35:51.568Z,99117.55
2023-04-09T21:38:19.412Z,99112.26
2023-04-09T21:40:46.927Z,99116.11
2023-04-09T21:43:14.330Z,99111.02
2023-04-09T21:45:41.420Z,99112.48
2023-04-09T21:48:09.943Z,99115.13
2023-04-09T21:50:37.783Z,99112.30
2023-04-09T21:53:05.936Z,99111.38
2023-04-09T21:55:36.114Z,99110.87
2023-04-09T21:58:03.493Z,99104.94
2023-04-09T22:00:32.972Z,99107.02
2023-04-09T22:03:01.194Z,99103.73
2023-04-09T22:05:31.571Z,99096.33
2023-04-09T22:07:58.822Z,99101.17
2023-04-09T22:10:27.126Z,99100.48
2023-04-09T22:12:58.855Z,99102.73
2023-04-09T22:15:26.964Z,99105.04
2023-04-09T22:17:54.522Z,99100.41
2023-04-09T22:20:24.229Z,99095.27
2023-04-09T22:22:55.775Z,99100.53
2023-04-09T22:25:23.306Z,99098.33
2023-04-09T22:27:51.910Z,99095.88
2023-04-09T22:30:21.396Z,99096.71
2023-04-09T22:33:06.348Z,99091.25
2023-04-09T22:35:34.587Z,99092.38
2023-04-09T22:38:02.928Z,99095.16
2023-04-09T22:40:30.584Z,99098.98
2023-04-09T22:42:58.029Z,99095.98
2023-04-09T22:45:27.431Z,99090.50
2023-04-09T22:47:55.353Z,99078.40
2023-04-09T22:50:26.069Z,99073.25
2023-04-09T22:52:54.201Z,99075.02
2023-04-09T22:55:22.915Z,99074.73
2023-04-09T22:57:50.932Z,99074.02
2023-04-09T23:00:18.619Z,99069.08
2023-04-09T23:02:47.309Z,99065.29
2023-04-09T23:05:15.166Z,99063.27
2023-04-09T23:07:44.638Z,99065.02
2023-04-09T23:10:16.876Z,99069.35
2023-04-09T23:12:58.527Z,99068.11
2023-04-09T23:15:26.291Z,99067.00
2023-04-09T23:17:54.223Z,99068.86
2023-04-09T23:20:21.723Z,99067.29
2023-04-09T23:22:49.278Z,99060.48
2023-04-09T23:25:22.268Z,99062.30
2023-04-09T23:27:50.749Z,99058.83
2023-04-09T23:30:19.940Z,99064.27
2023-04-09T23:32:57.029Z,99064.36
2023-04-09T23:35:25.446Z,99061.97
2023-04-09T23:37:55.745Z,99060.32
2023-04-09T23:40:22.976Z,99057.11
2023-04-09T23:42:50.638Z,99055.80
2023-04-09T23:45:22.834Z,99053.95
2023-04-09T23:47:50.227Z,99054.13
2023-04-09T23:50:22.844Z,99054.53
2023-04-09T23:52:51.054Z,99053.75
2023-04-09T23:55:18.576Z,99057.60
2023-04-09T23:57:47.684Z,99060.41
